createdAt,value
2023-01-30T00:01:11.612Z,31.34
2023-01-30T00:03:37.960Z,31.29
2023-01-30T00:06:04.323Z,31.47
2023-01-30T00:08:30.702Z,31.15
2023-01-30T00:10:57.128Z,31.42
2023-01-30T00:13:23.505Z,31.17
2023-01-30T00:15:49.856Z,31.17
2023-01-30T00:18:16.245Z,31.38
2023-01-30T00:20:42.663Z,31.45
2023-01-30T00:23:09.018Z,31.33
2023-01-30T00:25:35.535Z,31.30
2023-01-30T00:28:02.059Z,31.53
2023-01-30T00:30:28.534Z,31.34
2023-01-30T00:32:54.953Z,31.44
2023-01-30T00:35:21.323Z,31.24
2023-01-30T00:37:47.700Z,31.36
2023-01-30T00:40:14.057Z,31.64
2023-01-30T00:42:40.443Z,31.21
2023-01-30T00:45:06.805Z,31.44
2023-01-30T00:47:33.197Z,31.53
2023-01-30T00:49:59.566Z,31.43
2023-01-30T00:52:25.942Z,31.52
2023-01-30T00:54:52.297Z,31.42
2023-01-30T00:57:18.670Z,31.19
2023-01-30T00:59:45.047Z,31.33
2023-01-30T01:02:11.504Z,31.62
2023-01-30T01:04:37.904Z,31.56
2023-01-30T01:07:04.268Z,31.24
2023-01-30T01:09:30.638Z,31.39
2023-01-30T01:11:57.013Z,31.30
2023-01-30T01:14:23.391Z,31.75
2023-01-30T01:16:50.012Z,31.20
2023-01-30T01:19:16.546Z,31.16
2023-01-30T01:21:42.920Z,31.49
2023-01-30T01:24:09.283Z,31.37
2023-01-30T01:26:35.702Z,31.54
2023-01-30T01:29:02.115Z,31.41
2023-01-30T01:31:28.596Z,31.29
2023-01-30T01:33:55.018Z,31.38
2023-01-30T01:36:49.883Z,31.26
2023-01-30T01:39:07.724Z,31.38
2023-01-30T01:41:34.102Z,31.50
2023-01-30T01:44:00.502Z,31.40
2023-01-30T01:46:26.864Z,31.25
2023-01-30T01:48:53.251Z,31.59
2023-01-30T01:51:19.595Z,31.27
2023-01-30T01:53:45.991Z,31.43
2023-01-30T01:56:12.388Z,31.31
2023-01-30T01:58:38.767Z,31.50
2023-01-30T02:01:05.116Z,31.62
2023-01-30T02:03:31.488Z,31.44
2023-01-30T02:05:58.061Z,31.50
2023-01-30T02:08:24.443Z,31.30
2023-01-30T02:10:50.800Z,31.64
2023-01-30T02:13:17.166Z,31.68
2023-01-30T02:15:43.634Z,31.29
2023-01-30T02:18:10.003Z,31.27
2023-01-30T02:20:36.389Z,31.25
2023-01-30T02:23:02.780Z,31.52
2023-01-30T02:25:29.179Z,31.25
2023-01-30T02:27:55.503Z,31.32
2023-01-30T02:30:22.084Z,31.41
2023-01-30T02:32:48.538Z,31.19
2023-01-30T02:35:14.944Z,31.46
2023-01-30T02:37:41.345Z,31.22
2023-01-30T02:40:07.689Z,31.21
2023-01-30T02:42:34.041Z,31.12
2023-01-30T02:45:00.514Z,31.29
2023-01-30T02:47:26.916Z,31.41
2023-01-30T02:49:53.291Z,31.11
2023-01-30T02:52:19.659Z,31.35
2023-01-30T02:54:46.051Z,31.38
2023-01-30T02:57:12.435Z,31.44
2023-01-30T02:59:38.847Z,31.48
2023-01-30T03:02:05.306Z,31.35
2023-01-30T03:04:31.736Z,31.50
2023-01-30T03:06:58.121Z,31.47
2023-01-30T03:09:24.472Z,31.26
2023-01-30T03:11:50.875Z,31.29
2023-01-30T03:14:17.455Z,31.23
2023-01-30T03:16:43.805Z,31.63
2023-01-30T03:19:10.196Z,31.36
2023-01-30T03:21:36.547Z,31.27
2023-01-30T03:24:02.920Z,31.67
2023-01-30T03:26:29.324Z,31.34
2023-01-30T03:28:55.696Z,31.61
2023-01-30T03:31:22.192Z,31.78
2023-01-30T03:33:48.647Z,31.42
2023-01-30T03:36:15.031Z,31.51
2023-01-30T03:38:41.432Z,31.60
2023-01-30T03:41:07.787Z,31.69
2023-01-30T03:43:34.166Z,31.85
2023-01-30T03:46:00.567Z,31.80
2023-01-30T03:48:26.965Z,31.54
2023-01-30T03:50:53.455Z,31.78
2023-01-30T03:53:19.844Z,31.68
2023-01-30T03:55:46.216Z,31.74
2023-01-30T03:58:12.612Z,31.69
2023-01-30T04:00:38.998Z,31.75
2023-01-30T04:03:05.487Z,31.84
2023-01-30T04:05:31.846Z,31.99
2023-01-30T04:07:58.212Z,31.88
2023-01-30T04:10:24.591Z,32.01
2023-01-30T04:12:50.972Z,32.10
2023-01-30T04:15:17.597Z,32.01
2023-01-30T04:17:44.205Z,31.85
2023-01-30T04:20:10.588Z,32.00
2023-01-30T04:22:36.958Z,31.84
2023-01-30T04:25:03.350Z,31.83
2023-01-30T04:27:29.720Z,31.85
2023-01-30T04:29:56.083Z,31.85
2023-01-30T04:32:22.471Z,31.90
2023-01-30T04:34:48.826Z,32.08
2023-01-30T04:37:15.198Z,31.97
2023-01-30T04:39:41.578Z,32.11
2023-01-30T04:42:07.946Z,32.08
2023-01-30T04:44:34.343Z,32.08
2023-01-30T04:47:00.688Z,31.86
2023-01-30T04:49:27.062Z,31.99
2023-01-30T04:51:53.431Z,32.33
2023-01-30T04:54:19.804Z,32.01
2023-01-30T04:56:46.191Z,32.21
2023-01-30T04:59:12.597Z,32.26
2023-01-30T05:01:39.010Z,32.27
2023-01-30T05:04:05.535Z,32.36
2023-01-30T05:06:31.884Z,32.23
2023-01-30T05:08:58.222Z,32.14
2023-01-30T05:11:24.620Z,31.99
2023-01-30T05:13:50.995Z,32.14
2023-01-30T05:16:17.356Z,32.11
2023-01-30T05:18:43.796Z,32.11
2023-01-30T05:21:10.145Z,32.06
2023-01-30T05:23:36.539Z,32.42
2023-01-30T05:26:02.900Z,32.10
2023-01-30T05:28:29.311Z,32.32
2023-01-30T05:30:55.685Z,32.44
2023-01-30T05:33:22.054Z,32.43
2023-01-30T05:35:48.449Z,32.07
2023-01-30T05:38:14.826Z,32.22
2023-01-30T05:40:41.182Z,32.27
2023-01-30T05:43:07.567Z,32.29
2023-01-30T05:45:34.187Z,32.55
2023-01-30T05:48:01.550Z,32.38
2023-01-30T05:50:28.180Z,32.09
2023-01-30T05:52:54.549Z,32.39
2023-01-30T05:55:20.994Z,32.51
2023-01-30T05:57:47.362Z,32.01
2023-01-30T06:00:13.730Z,32.66
2023-01-30T06:02:40.132Z,32.60
2023-01-30T06:05:06.502Z,32.51
2023-01-30T06:07:32.909Z,32.29
2023-01-30T06:09:59.256Z,32.57
2023-01-30T06:12:25.602Z,32.45
2023-01-30T06:14:51.966Z,32.61
2023-01-30T06:17:18.327Z,32.90
2023-01-30T06:19:44.701Z,32.41
2023-01-30T06:22:11.067Z,32.72
2023-01-30T06:24:37.443Z,32.83
2023-01-30T06:27:03.843Z,32.95
2023-01-30T06:29:31.321Z,32.73
2023-01-30T06:31:57.676Z,33.11
2023-01-30T06:34:24.052Z,32.96
2023-01-30T06:36:50.431Z,33.16
2023-01-30T06:39:16.886Z,32.99
2023-01-30T06:41:43.244Z,33.02
2023-01-30T06:44:09.605Z,33.08
2023-01-30T06:46:35.991Z,33.10
2023-01-30T06:49:02.366Z,33.15
2023-01-30T06:51:28.739Z,32.99
2023-01-30T06:53:55.224Z,33.27
2023-01-30T06:56:21.714Z,33.06
2023-01-30T06:58:48.076Z,33.13
2023-01-30T07:01:14.545Z,32.98
2023-01-30T07:03:40.917Z,33.18
2023-01-30T07:06:07.281Z,33.43
2023-01-30T07:08:33.640Z,33.10
2023-01-30T07:10:59.979Z,33.17
2023-01-30T07:13:26.323Z,33.29
2023-01-30T07:15:52.710Z,33.02
2023-01-30T07:18:19.058Z,33.25
2023-01-30T07:20:45.414Z,33.27
2023-01-30T07:23:11.786Z,33.41
2023-01-30T07:25:38.146Z,33.20
2023-01-30T07:28:04.739Z,33.42
2023-01-30T07:30:31.221Z,33.42
2023-01-30T07:32:57.608Z,33.55
2023-01-30T07:35:23.981Z,33.23
2023-01-30T07:37:50.337Z,33.64
2023-01-30T07:40:16.701Z,33.27
2023-01-30T07:42:43.085Z,33.52
2023-01-30T07:45:09.446Z,33.62
2023-01-30T07:47:35.877Z,33.40
2023-01-30T07:50:02.244Z,33.57
2023-01-30T07:52:28.634Z,33.63
2023-01-30T07:54:55.038Z,33.70
2023-01-30T07:57:21.440Z,33.54
2023-01-30T07:59:47.805Z,33.63
2023-01-30T08:02:14.182Z,33.94
2023-01-30T08:04:40.579Z,33.66
2023-01-30T08:07:06.942Z,33.77
2023-01-30T08:09:33.331Z,33.78
2023-01-30T08:11:59.691Z,33.81
2023-01-30T08:14:26.055Z,33.96
2023-01-30T08:16:52.468Z,33.92
2023-01-30T08:19:18.927Z,34.07
2023-01-30T08:21:45.291Z,33.74
2023-01-30T08:24:11.749Z,33.96
2023-01-30T08:26:38.168Z,33.98
2023-01-30T08:29:04.547Z,34.11
2023-01-30T08:31:30.921Z,34.03
2023-01-30T08:33:57.294Z,33.96
2023-01-30T08:36:23.669Z,34.03
2023-01-30T08:38:50.042Z,34.07
2023-01-30T08:41:16.420Z,34.19
2023-01-30T08:43:42.811Z,34.16
2023-01-30T08:46:09.215Z,34.14
2023-01-30T08:48:47.686Z,34.14
2023-01-30T08:51:15.423Z,34.11
2023-01-30T08:53:41.929Z,34.15
2023-01-30T08:56:08.301Z,34.10
2023-01-30T08:58:34.656Z,34.18
2023-01-30T09:01:01.100Z,34.16
2023-01-30T09:03:27.488Z,34.18
2023-01-30T09:05:53.902Z,34.66
2023-01-30T09:08:20.267Z,34.31
2023-01-30T09:10:46.639Z,34.20
2023-01-30T09:13:13.045Z,34.43
2023-01-30T09:15:39.420Z,34.27
2023-01-30T09:18:05.936Z,34.21
2023-01-30T09:20:32.307Z,34.49
2023-01-30T09:22:58.707Z,34.33
2023-01-30T09:25:25.136Z,34.55
2023-01-30T09:27:51.528Z,34.41
2023-01-30T09:30:18.238Z,34.50
2023-01-30T09:32:44.913Z,34.62
2023-01-30T09:35:11.308Z,34.34
2023-01-30T09:37:37.673Z,34.52
2023-01-30T09:40:04.036Z,34.50
2023-01-30T09:42:30.430Z,34.67
2023-01-30T09:44:56.792Z,34.52
2023-01-30T09:47:23.156Z,34.53
2023-01-30T09:49:49.550Z,34.62
2023-01-30T09:52:18.302Z,34.70
2023-01-30T09:54:44.753Z,34.60
2023-01-30T09:57:21.965Z,34.51
2023-01-30T09:59:48.657Z,34.62
2023-01-30T10:02:15.025Z,34.89
2023-01-30T10:04:48.809Z,34.55
2023-01-30T10:07:25.680Z,34.85
2023-01-30T10:09:52.123Z,35.02
2023-01-30T10:12:18.527Z,35.07
2023-01-30T10:14:44.882Z,34.67
2023-01-30T10:17:11.358Z,34.63
2023-01-30T10:19:37.787Z,34.79
2023-01-30T10:22:04.150Z,34.71
2023-01-30T10:24:30.509Z,34.86
2023-01-30T10:26:56.871Z,35.01
2023-01-30T10:29:23.224Z,35.02
2023-01-30T10:31:49.621Z,34.89
2023-01-30T10:34:16.025Z,34.81
2023-01-30T10:36:42.384Z,35.17
2023-01-30T10:39:08.756Z,35.13
2023-01-30T10:41:35.151Z,35.03
2023-01-30T10:44:01.524Z,35.24
2023-01-30T10:46:27.988Z,35.02
2023-01-30T10:48:54.406Z,35.18
2023-01-30T10:51:21.337Z,35.34
2023-01-30T10:53:47.690Z,35.14
2023-01-30T10:56:14.067Z,34.94
2023-01-30T10:58:40.458Z,35.09
2023-01-30T11:01:06.825Z,35.36
2023-01-30T11:03:33.211Z,35.53
2023-01-30T11:05:59.610Z,35.41
2023-01-30T11:08:25.980Z,34.85
2023-01-30T11:10:52.352Z,35.03
2023-01-30T11:13:18.731Z,35.45
2023-01-30T11:15:45.148Z,35.36
2023-01-30T11:18:49.661Z,35.20
2023-01-30T11:20:57.874Z,35.20
2023-01-30T11:23:24.242Z,35.58
2023-01-30T11:25:59.262Z,35.66
2023-01-30T11:28:32.014Z,35.51
2023-01-30T11:30:58.398Z,35.58
2023-01-30T11:33:24.787Z,35.73
2023-01-30T11:35:51.152Z,35.63
2023-01-30T11:38:17.520Z,35.60
2023-01-30T11:40:43.881Z,35.46
2023-01-30T11:43:10.220Z,35.82
2023-01-30T11:45:36.617Z,35.56
2023-01-30T11:48:05.057Z,35.71
2023-01-30T11:50:35.234Z,36.03
2023-01-30T11:53:03.118Z,35.78
2023-01-30T11:55:29.486Z,35.88
2023-01-30T11:57:55.853Z,35.92
2023-01-30T12:00:22.412Z,36.03
2023-01-30T12:02:48.905Z,35.89
2023-01-30T12:05:15.351Z,36.08
2023-01-30T12:07:41.703Z,35.92
2023-01-30T12:10:08.088Z,35.84
2023-01-30T12:12:34.444Z,36.25
2023-01-30T12:15:00.792Z,35.96
2023-01-30T12:17:27.212Z,36.11
2023-01-30T12:19:53.572Z,36.05
2023-01-30T12:22:19.941Z,36.06
2023-01-30T12:24:46.318Z,36.58
2023-01-30T12:27:12.682Z,36.03
2023-01-30T12:29:40.934Z,36.22
2023-01-30T12:34:33.474Z,36.24
2023-01-30T12:36:59.845Z,36.00
2023-01-30T12:39:26.226Z,36.06
2023-01-30T12:41:52.576Z,36.17
2023-01-30T12:44:18.945Z,36.34
2023-01-30T12:46:45.324Z,36.44
2023-01-30T12:49:12.177Z,36.66
2023-01-30T12:51:38.707Z,35.99
2023-01-30T12:54:05.059Z,36.40
2023-01-30T12:56:31.437Z,36.79
2023-01-30T12:58:57.800Z,36.41
2023-01-30T13:01:24.216Z,36.27
2023-01-30T13:03:50.641Z,36.53
2023-01-30T13:06:17.003Z,36.63
2023-01-30T13:08:43.340Z,36.46
2023-01-30T13:11:09.703Z,36.55
2023-01-30T13:13:36.046Z,36.60
2023-01-30T13:16:02.442Z,36.57
2023-01-30T13:18:28.824Z,36.72
2023-01-30T13:20:55.178Z,36.80
2023-01-30T13:23:21.624Z,36.63
2023-01-30T13:25:48.109Z,36.64
2023-01-30T13:28:14.472Z,36.80
2023-01-30T13:30:40.827Z,36.45
2023-01-30T13:33:07.182Z,36.62
2023-01-30T13:35:33.532Z,36.62
2023-01-30T13:37:59.888Z,36.84
2023-01-30T13:40:26.268Z,36.99
2023-01-30T13:42:52.639Z,36.74
2023-01-30T13:45:19.116Z,36.73
2023-01-30T13:47:45.632Z,36.76
2023-01-30T13:50:12.069Z,36.94
2023-01-30T13:52:38.467Z,37.01
2023-01-30T13:55:04.886Z,37.03
2023-01-30T13:57:31.299Z,37.00
2023-01-30T13:59:57.667Z,37.13
2023-01-30T14:02:24.019Z,36.94
2023-01-30T14:04:50.464Z,37.31
2023-01-30T14:07:16.833Z,37.22
2023-01-30T14:09:43.218Z,37.29
2023-01-30T14:12:09.588Z,37.07
2023-01-30T14:14:35.936Z,37.01
2023-01-30T14:17:02.292Z,37.32
2023-01-30T14:19:28.662Z,37.65
2023-01-30T14:21:55.048Z,37.64
2023-01-30T14:24:21.398Z,37.44
2023-01-30T14:26:47.858Z,37.84
2023-01-30T14:29:14.295Z,37.76
2023-01-30T14:31:40.776Z,38.19
2023-01-30T14:34:07.240Z,38.84
2023-01-30T14:36:33.611Z,38.45
2023-01-30T14:39:00.014Z,38.93
2023-01-30T14:41:26.382Z,38.73
2023-01-30T14:43:53.750Z,38.72
2023-01-30T14:46:20.535Z,38.73
2023-01-30T14:48:46.957Z,39.33
2023-01-30T14:51:13.343Z,38.72
2023-01-30T14:53:39.889Z,38.39
2023-01-30T14:56:06.257Z,39.14
2023-01-30T14:58:32.620Z,41.67
2023-01-30T15:00:59.015Z,42.04
2023-01-30T15:03:25.399Z,41.83
2023-01-30T15:05:51.788Z,41.77
2023-01-30T15:08:18.159Z,41.45
2023-01-30T15:10:44.506Z,41.33
2023-01-30T15:13:10.880Z,41.04
2023-01-30T15:15:37.360Z,41.03
2023-01-30T15:18:08.171Z,41.21
2023-01-30T15:20:35.196Z,41.02
2023-01-30T15:23:01.574Z,40.58
2023-01-30T15:25:27.940Z,40.56
2023-01-30T15:27:54.305Z,40.69
2023-01-30T15:30:21.041Z,40.98
2023-01-30T15:32:47.586Z,40.53
2023-01-30T15:35:13.956Z,40.44
2023-01-30T15:37:40.348Z,40.50
2023-01-30T15:40:06.718Z,39.98
2023-01-30T15:42:33.069Z,40.25
2023-01-30T15:44:59.432Z,39.80
2023-01-30T15:47:25.807Z,39.94
2023-01-30T15:49:52.165Z,39.71
2023-01-30T15:52:18.542Z,39.92
2023-01-30T15:54:47.165Z,39.89
2023-01-30T15:57:14.539Z,39.75
2023-01-30T15:59:40.913Z,39.47
2023-01-30T16:02:07.314Z,39.63
2023-01-30T16:04:33.710Z,39.27
2023-01-30T16:07:00.102Z,39.36
2023-01-30T16:09:26.476Z,39.54
2023-01-30T16:11:52.823Z,39.43
2023-01-30T16:14:19.204Z,39.40
2023-01-30T16:16:45.660Z,39.08
2023-01-30T16:19:12.052Z,38.89
2023-01-30T16:21:38.437Z,39.20
2023-01-30T16:24:04.795Z,38.81
2023-01-30T16:26:31.198Z,38.75
2023-01-30T16:28:57.618Z,38.93
2023-01-30T16:31:24.065Z,39.03
2023-01-30T16:33:50.488Z,38.95
2023-01-30T16:36:16.965Z,38.88
2023-01-30T16:38:43.335Z,38.84
2023-01-30T16:41:09.734Z,38.70
2023-01-30T16:43:36.120Z,38.69
2023-01-30T16:46:02.493Z,38.31
2023-01-30T16:48:28.847Z,38.42
2023-01-30T16:50:55.444Z,38.25
2023-01-30T16:53:21.797Z,38.06
2023-01-30T16:55:48.157Z,38.13
2023-01-30T16:58:14.502Z,38.12
2023-01-30T17:00:40.852Z,37.96
2023-01-30T17:03:07.307Z,37.71
2023-01-30T17:05:33.710Z,37.63
2023-01-30T17:08:00.120Z,37.60
2023-01-30T17:10:26.488Z,37.51
2023-01-30T17:12:52.873Z,37.40
2023-01-30T17:15:19.435Z,37.29
2023-01-30T17:17:45.997Z,37.51
2023-01-30T17:20:12.404Z,37.43
2023-01-30T17:22:38.770Z,37.03
2023-01-30T17:25:05.150Z,37.06
2023-01-30T17:27:31.528Z,37.20
2023-01-30T17:29:57.964Z,36.96
2023-01-30T17:32:24.334Z,36.81
2023-01-30T17:34:50.687Z,36.95
2023-01-30T17:37:17.056Z,36.89
2023-01-30T17:39:43.428Z,36.48
2023-01-30T17:42:09.799Z,36.84
2023-01-30T17:44:36.165Z,36.66
2023-01-30T17:47:02.625Z,36.63
2023-01-30T17:49:28.984Z,36.41
2023-01-30T17:51:55.362Z,36.74
2023-01-30T17:54:21.738Z,36.42
2023-01-30T17:56:48.157Z,36.53
2023-01-30T17:59:14.535Z,36.28
2023-01-30T18:01:41.129Z,36.54
2023-01-30T18:04:07.555Z,36.35
2023-01-30T18:06:33.964Z,36.29
2023-01-30T18:09:00.336Z,36.38
2023-01-30T18:11:26.724Z,36.02
2023-01-30T18:13:53.086Z,36.15
2023-01-30T18:16:19.439Z,36.01
2023-01-30T18:18:45.840Z,36.14
2023-01-30T18:21:12.209Z,35.99
2023-01-30T18:23:38.595Z,35.96
2023-01-30T18:26:04.958Z,35.94
2023-01-30T18:28:31.331Z,36.25
2023-01-30T18:30:57.820Z,36.05
2023-01-30T18:33:24.242Z,36.01
2023-01-30T18:35:50.603Z,35.60
2023-01-30T18:38:16.986Z,35.67
2023-01-30T18:40:43.340Z,35.80
2023-01-30T18:43:09.687Z,35.71
2023-01-30T18:45:36.066Z,35.72
2023-01-30T18:48:02.447Z,35.54
2023-01-30T18:50:28.826Z,35.52
2023-01-30T18:52:55.182Z,35.63
2023-01-30T18:55:21.649Z,35.54
2023-01-30T18:57:48.018Z,35.48
2023-01-30T19:00:16.486Z,35.63
2023-01-30T19:02:43.899Z,35.49
2023-01-30T19:05:10.305Z,35.22
2023-01-30T19:07:36.690Z,35.39
2023-01-30T19:10:03.172Z,35.39
2023-01-30T19:12:29.536Z,35.42
2023-01-30T19:14:55.906Z,35.36
2023-01-30T19:17:22.373Z,35.28
2023-01-30T19:19:48.732Z,35.19
2023-01-30T19:22:16.668Z,35.34
2023-01-30T19:24:44.336Z,35.22
2023-01-30T19:27:10.680Z,35.25
2023-01-30T19:29:37.028Z,35.08
2023-01-30T19:32:03.448Z,35.21
2023-01-30T19:34:29.995Z,34.94
2023-01-30T19:36:56.360Z,35.22
2023-01-30T19:39:22.705Z,34.97
2023-01-30T19:41:49.105Z,35.19
2023-01-30T19:44:15.453Z,35.23
2023-01-30T19:46:41.892Z,35.17
2023-01-30T19:49:08.287Z,34.97
2023-01-30T19:51:34.671Z,35.22
2023-01-30T19:54:01.031Z,35.25
2023-01-30T19:56:27.373Z,35.12
2023-01-30T19:58:53.728Z,34.90
2023-01-30T20:01:20.108Z,35.02
2023-01-30T20:03:46.505Z,35.03
2023-01-30T20:06:13.238Z,35.13
2023-01-30T20:08:39.681Z,34.84
2023-01-30T20:11:06.062Z,35.26
2023-01-30T20:13:32.457Z,35.03
2023-01-30T20:15:58.820Z,35.05
2023-01-30T20:18:25.193Z,34.94
2023-01-30T20:20:51.602Z,34.89
2023-01-30T20:23:17.953Z,34.82
2023-01-30T20:25:44.307Z,35.03
2023-01-30T20:28:10.689Z,34.99
2023-01-30T20:30:37.069Z,35.07
2023-01-30T20:33:03.447Z,34.96
2023-01-30T20:35:29.815Z,34.95
2023-01-30T20:37:56.195Z,34.74
2023-01-30T20:40:22.571Z,35.00
2023-01-30T20:42:48.935Z,35.00
2023-01-30T20:45:15.296Z,34.93
2023-01-30T20:47:41.659Z,34.76
2023-01-30T20:50:08.003Z,34.92
2023-01-30T20:52:34.540Z,34.82
2023-01-30T20:55:00.922Z,34.70
2023-01-30T20:57:27.277Z,34.94
2023-01-30T20:59:53.643Z,34.79
2023-01-30T21:02:20.014Z,34.56
2023-01-30T21:04:46.533Z,34.63
2023-01-30T21:07:13.032Z,34.68
2023-01-30T21:09:39.494Z,34.61
2023-01-30T21:12:05.865Z,34.67
2023-01-30T21:14:34.540Z,34.68
2023-01-30T21:17:01.458Z,34.47
2023-01-30T21:19:27.965Z,34.79
2023-01-30T21:21:55.428Z,34.54
2023-01-30T21:24:21.781Z,34.71
2023-01-30T21:26:48.217Z,34.45
2023-01-30T21:29:14.679Z,34.63
2023-01-30T21:31:41.174Z,34.57
2023-01-30T21:34:07.592Z,34.66
2023-01-30T21:36:33.983Z,34.51
2023-01-30T21:39:00.414Z,34.43
2023-01-30T21:41:26.815Z,34.24
2023-01-30T21:43:53.195Z,34.51
2023-01-30T21:46:19.676Z,34.25
2023-01-30T21:48:46.063Z,34.42
2023-01-30T21:51:12.445Z,34.36
2023-01-30T21:53:38.976Z,34.27
2023-01-30T21:56:05.449Z,34.49
2023-01-30T21:58:32.393Z,34.56
2023-01-30T22:00:58.884Z,34.37
2023-01-30T22:03:25.287Z,34.32
2023-01-30T22:05:51.666Z,34.50
2023-01-30T22:08:18.020Z,34.24
2023-01-30T22:10:44.402Z,34.46
2023-01-30T22:13:10.756Z,34.23
2023-01-30T22:15:37.417Z,34.18
2023-01-30T22:18:03.781Z,34.26
2023-01-30T22:20:30.137Z,34.16
2023-01-30T22:22:56.514Z,34.44
2023-01-30T22:25:22.880Z,34.24
2023-01-30T22:27:49.247Z,34.29
2023-01-30T22:30:15.619Z,34.35
2023-01-30T22:32:42.079Z,34.13
2023-01-30T22:35:08.449Z,34.08
2023-01-30T22:37:34.826Z,33.96
2023-01-30T22:40:01.175Z,34.23
2023-01-30T22:42:27.655Z,34.25
2023-01-30T22:44:54.623Z,34.39
2023-01-30T22:47:21.078Z,34.24
2023-01-30T22:49:47.487Z,33.89
2023-01-30T22:52:13.855Z,34.12
2023-01-30T22:54:40.639Z,34.19
2023-01-30T22:57:07.003Z,33.96
2023-01-30T22:59:33.408Z,34.29
2023-01-30T23:01:59.778Z,33.95
2023-01-30T23:04:26.156Z,34.11
2023-01-30T23:06:52.527Z,33.95
2023-01-30T23:09:18.896Z,34.04
2023-01-30T23:11:45.257Z,34.04
2023-01-30T23:14:11.659Z,33.92
2023-01-30T23:16:38.080Z,33.78
2023-01-30T23:19:04.492Z,33.97
2023-01-30T23:21:30.912Z,34.11
2023-01-30T23:23:57.283Z,33.97
2023-01-30T23:26:23.708Z,33.74
2023-01-30T23:28:50.097Z,34.09
2023-01-30T23:31:16.750Z,34.05
2023-01-30T23:33:43.265Z,33.95
2023-01-30T23:36:09.620Z,33.92
2023-01-30T23:38:36.466Z,34.04
2023-01-30T23:41:02.854Z,33.76
2023-01-30T23:43:29.228Z,33.82
2023-01-30T23:45:55.619Z,33.61
2023-01-30T23:48:22.033Z,33.66
2023-01-30T23:50:48.401Z,33.78
2023-01-30T23:53:14.771Z,33.68
2023-01-30T23:55:41.162Z,33.79
2023-01-30T23:58:07.539Z,33.64
